sensor_id;sensor_type;location;lat;lon;timestamp;temperature;humidity
12771;DHT22;6449;47.666;9.160;2023-02-27T00:03:27;-0.50;99.90
12771;DHT22;6449;47.666;9.160;2023-02-27T00:08:20;-0.50;99.90
12771;DHT22;6449;47.666;9.160;2023-02-27T00:13:16;-0.60;99.90
12771;DHT22;6449;47.666;9.160;2023-02-27T00:18:09;-0.60;99.90
12771;DHT22;6449;47.666;9.160;2023-02-27T00:23:03;-0.60;99.90
12771;DHT22;6449;47.666;9.160;2023-02-27T00:27:57;-0.50;99.90
12771;DHT22;6449;47.666;9.160;2023-02-27T00:32:52;-0.50;99.90
12771;DHT22;6449;47.666;9.160;2023-02-27T00:37:46;-0.60;99.90
12771;DHT22;6449;47.666;9.160;2023-02-27T00:42:40;-0.60;99.90
12771;DHT22;6449;47.666;9.160;2023-02-27T00:47:34;-0.60;99.90
12771;DHT22;6449;47.666;9.160;2023-02-27T00:52:29;-0.60;99.90
12771;DHT22;6449;47.666;9.160;2023-02-27T00:57:24;-0.60;99.90
12771;DHT22;6449;47.666;9.160;2023-02-27T01:02:18;-0.60;99.90
12771;DHT22;6449;47.666;9.160;2023-02-27T01:07:12;-0.60;99.90
12771;DHT22;6449;47.666;9.160;2023-02-27T01:12:07;-0.60;99.90
12771;DHT22;6449;47.666;9.160;2023-02-27T01:17:01;-0.50;99.90
12771;DHT22;6449;47.666;9.160;2023-02-27T01:21:55;-0.50;99.90
12771;DHT22;6449;47.666;9.160;2023-02-27T01:26:48;-0.50;99.90
12771;DHT22;6449;47.666;9.160;2023-02-27T01:31:44;-0.50;99.90
12771;DHT22;6449;47.666;9.160;2023-02-27T01:36:41;-0.60;99.90
12771;DHT22;6449;47.666;9.160;2023-02-27T01:41:35;-0.60;99.90
12771;DHT22;6449;47.666;9.160;2023-02-27T01:46:29;-0.60;99.90
12771;DHT22;6449;47.666;9.160;2023-02-27T01:51:28;-0.60;99.90
12771;DHT22;6449;47.666;9.160;2023-02-27T01:56:29;-0.60;99.90
12771;DHT22;6449;47.666;9.160;2023-02-27T02:01:24;-0.60;99.90
12771;DHT22;6449;47.666;9.160;2023-02-27T02:06:19;-0.70;99.90
12771;DHT22;6449;47.666;9.160;2023-02-27T02:11:19;-0.70;99.90
12771;DHT22;6449;47.666;9.160;2023-02-27T02:16:31;-0.70;99.90
12771;DHT22;6449;47.666;9.160;2023-02-27T02:27:37;-0.70;99.90
12771;DHT22;6449;47.666;9.160;2023-02-27T02:38:57;-0.70;99.90
12771;DHT22;6449;47.666;9.160;2023-02-27T02:44:03;-0.70;99.90
12771;DHT22;6449;47.666;9.160;2023-02-27T02:49:13;-0.60;99.90
12771;DHT22;6449;47.666;9.160;2023-02-27T02:54:18;-0.60;99.90
12771;DHT22;6449;47.666;9.160;2023-02-27T02:59:21;-0.70;99.90
12771;DHT22;6449;47.666;9.160;2023-02-27T03:04:22;-0.60;99.90
12771;DHT22;6449;47.666;9.160;2023-02-27T03:09:25;-0.50;99.90
12771;DHT22;6449;47.666;9.160;2023-02-27T03:14:29;-0.50;99.90
12771;DHT22;6449;47.666;9.160;2023-02-27T03:19:30;-0.50;99.90
12771;DHT22;6449;47.666;9.160;2023-02-27T03:24:34;-0.50;99.90
12771;DHT22;6449;47.666;9.160;2023-02-27T03:29:37;-0.50;99.90
12771;DHT22;6449;47.666;9.160;2023-02-27T03:34:37;-0.50;99.90
12771;DHT22;6449;47.666;9.160;2023-02-27T03:39:40;-0.50;99.90
12771;DHT22;6449;47.666;9.160;2023-02-27T03:44:48;-0.50;99.90
12771;DHT22;6449;47.666;9.160;2023-02-27T03:49:47;-0.40;99.90
12771;DHT22;6449;47.666;9.160;2023-02-27T03:54:48;-0.50;99.90
12771;DHT22;6449;47.666;9.160;2023-02-27T03:59:45;-0.60;99.90
12771;DHT22;6449;47.666;9.160;2023-02-27T04:04:38;-0.70;99.90
12771;DHT22;6449;47.666;9.160;2023-02-27T04:09:49;-0.70;99.90
12771;DHT22;6449;47.666;9.160;2023-02-27T04:15:12;-0.60;99.90
12771;DHT22;6449;47.666;9.160;2023-02-27T04:20:23;-0.60;99.90
12771;DHT22;6449;47.666;9.160;2023-02-27T04:25:52;-0.70;99.90
12771;DHT22;6449;47.666;9.160;2023-02-27T04:31:04;-0.70;99.90
12771;DHT22;6449;47.666;9.160;2023-02-27T04:36:10;-0.70;99.90
12771;DHT22;6449;47.666;9.160;2023-02-27T04:41:13;-0.70;99.90
12771;DHT22;6449;47.666;9.160;2023-02-27T04:46:15;-0.70;99.90
12771;DHT22;6449;47.666;9.160;2023-02-27T04:51:15;-0.80;99.90
12771;DHT22;6449;47.666;9.160;2023-02-27T04:56:15;-0.70;99.90
12771;DHT22;6449;47.666;9.160;2023-02-27T05:01:17;-0.70;99.90
12771;DHT22;6449;47.666;9.160;2023-02-27T05:06:16;-0.70;99.90
12771;DHT22;6449;47.666;9.160;2023-02-27T05:11:20;-0.70;99.90
12771;DHT22;6449;47.666;9.160;2023-02-27T05:16:21;-0.80;99.90
12771;DHT22;6449;47.666;9.160;2023-02-27T05:21:24;-0.80;99.90
12771;DHT22;6449;47.666;9.160;2023-02-27T05:26:29;-0.80;99.90
12771;DHT22;6449;47.666;9.160;2023-02-27T05:31:40;-0.80;99.90
12771;DHT22;6449;47.666;9.160;2023-02-27T05:36:42;-0.80;99.90
12771;DHT22;6449;47.666;9.160;2023-02-27T05:41:45;-0.80;99.90
12771;DHT22;6449;47.666;9.160;2023-02-27T05:46:45;-0.80;99.90
12771;DHT22;6449;47.666;9.160;2023-02-27T05:51:46;-0.80;99.90
12771;DHT22;6449;47.666;9.160;2023-02-27T05:56:46;-0.80;99.90
12771;DHT22;6449;47.666;9.160;2023-02-27T06:01:41;-0.80;99.90
12771;DHT22;6449;47.666;9.160;2023-02-27T06:06:38;-0.70;99.90
12771;DHT22;6449;47.666;9.160;2023-02-27T06:11:32;-0.70;99.90
12771;DHT22;6449;47.666;9.160;2023-02-27T06:16:27;-0.70;99.90
12771;DHT22;6449;47.666;9.160;2023-02-27T06:21:21;-0.80;99.90
12771;DHT22;6449;47.666;9.160;2023-02-27T06:26:14;-0.70;99.90
12771;DHT22;6449;47.666;9.160;2023-02-27T06:31:08;-0.70;99.90
12771;DHT22;6449;47.666;9.160;2023-02-27T06:36:03;-0.60;99.90
12771;DHT22;6449;47.666;9.160;2023-02-27T06:40:57;-0.60;99.90
12771;DHT22;6449;47.666;9.160;2023-02-27T06:45:52;-0.60;99.90
12771;DHT22;6449;47.666;9.160;2023-02-27T06:50:50;-0.50;99.90
12771;DHT22;6449;47.666;9.160;2023-02-27T06:55:45;-0.50;99.90
12771;DHT22;6449;47.666;9.160;2023-02-27T07:00:40;-0.50;99.90
12771;DHT22;6449;47.666;9.160;2023-02-27T07:05:33;-0.40;99.90
12771;DHT22;6449;47.666;9.160;2023-02-27T07:10:27;-0.50;99.90
12771;DHT22;6449;47.666;9.160;2023-02-27T07:15:22;-0.50;99.90
12771;DHT22;6449;47.666;9.160;2023-02-27T07:20:15;-0.40;99.90
12771;DHT22;6449;47.666;9.160;2023-02-27T07:25:09;-0.30;99.90
12771;DHT22;6449;47.666;9.160;2023-02-27T07:30:03;-0.30;99.90
12771;DHT22;6449;47.666;9.160;2023-02-27T07:34:58;-0.30;99.90
12771;DHT22;6449;47.666;9.160;2023-02-27T07:39:51;-0.30;99.90
12771;DHT22;6449;47.666;9.160;2023-02-27T07:44:44;-0.20;99.90
12771;DHT22;6449;47.666;9.160;2023-02-27T07:49:38;-0.10;99.90
12771;DHT22;6449;47.666;9.160;2023-02-27T07:54:32;-0.10;99.90
12771;DHT22;6449;47.666;9.160;2023-02-27T07:59:28;-0.10;99.90
12771;DHT22;6449;47.666;9.160;2023-02-27T08:04:21;-0.10;99.90
12771;DHT22;6449;47.666;9.160;2023-02-27T08:09:15;-0.10;99.90
12771;DHT22;6449;47.666;9.160;2023-02-27T08:14:10;-0.10;99.90
12771;DHT22;6449;47.666;9.160;2023-02-27T08:19:03;0.00;99.90
12771;DHT22;6449;47.666;9.160;2023-02-27T08:23:57;0.00;99.90
12771;DHT22;6449;47.666;9.160;2023-02-27T08:28:50;0.00;99.90
12771;DHT22;6449;47.666;9.160;2023-02-27T08:33:45;0.10;99.90
12771;DHT22;6449;47.666;9.160;2023-02-27T08:38:43;0.20;99.90
12771;DHT22;6449;47.666;9.160;2023-02-27T08:43:37;0.10;99.90
12771;DHT22;6449;47.666;9.160;2023-02-27T08:48:30;0.20;99.90
12771;DHT22;6449;47.666;9.160;2023-02-27T08:53:25;0.20;99.90
12771;DHT22;6449;47.666;9.160;2023-02-27T08:58:19;0.10;99.90
12771;DHT22;6449;47.666;9.160;2023-02-27T09:03:13;0.20;99.90
12771;DHT22;6449;47.666;9.160;2023-02-27T09:08:07;0.30;99.90
12771;DHT22;6449;47.666;9.160;2023-02-27T09:13:02;0.40;99.90
12771;DHT22;6449;47.666;9.160;2023-02-27T09:17:55;0.40;99.90
12771;DHT22;6449;47.666;9.160;2023-02-27T09:22:53;0.50;99.90
12771;DHT22;6449;47.666;9.160;2023-02-27T09:27:46;0.50;99.90
12771;DHT22;6449;47.666;9.160;2023-02-27T09:32:41;0.70;99.90
12771;DHT22;6449;47.666;9.160;2023-02-27T09:37:35;0.70;99.90
12771;DHT22;6449;47.666;9.160;2023-02-27T09:42:34;0.70;99.90
12771;DHT22;6449;47.666;9.160;2023-02-27T09:47:35;0.70;99.90
12771;DHT22;6449;47.666;9.160;2023-02-27T09:52:35;0.70;99.90
12771;DHT22;6449;47.666;9.160;2023-02-27T09:57:43;0.70;99.90
12771;DHT22;6449;47.666;9.160;2023-02-27T10:02:48;0.70;99.90
12771;DHT22;6449;47.666;9.160;2023-02-27T10:07:54;0.70;99.90
12771;DHT22;6449;47.666;9.160;2023-02-27T10:18:30;0.70;99.90
12771;DHT22;6449;47.666;9.160;2023-02-27T10:23:34;0.70;99.90
12771;DHT22;6449;47.666;9.160;2023-02-27T10:28:33;0.80;99.90
12771;DHT22;6449;47.666;9.160;2023-02-27T10:33:32;0.70;99.90
12771;DHT22;6449;47.666;9.160;2023-02-27T10:38:33;0.80;99.90
12771;DHT22;6449;47.666;9.160;2023-02-27T10:43:30;0.80;99.90
12771;DHT22;6449;47.666;9.160;2023-02-27T10:48:24;0.90;99.90
12771;DHT22;6449;47.666;9.160;2023-02-27T10:53:19;0.90;99.90
12771;DHT22;6449;47.666;9.160;2023-02-27T10:58:18;0.90;99.90
12771;DHT22;6449;47.666;9.160;2023-02-27T11:03:18;0.90;99.90
12771;DHT22;6449;47.666;9.160;2023-02-27T11:08:22;0.80;99.90
12771;DHT22;6449;47.666;9.160;2023-02-27T11:13:21;0.80;99.90
12771;DHT22;6449;47.666;9.160;2023-02-27T11:18:24;0.90;99.90
12771;DHT22;6449;47.666;9.160;2023-02-27T11:23:22;0.90;99.90
12771;DHT22;6449;47.666;9.160;2023-02-27T11:28:23;0.90;99.90
12771;DHT22;6449;47.666;9.160;2023-02-27T11:33:20;0.90;99.90
12771;DHT22;6449;47.666;9.160;2023-02-27T11:38:17;0.90;99.90
12771;DHT22;6449;47.666;9.160;2023-02-27T11:43:18;0.90;99.90
12771;DHT22;6449;47.666;9.160;2023-02-27T11:48:18;0.90;99.90
12771;DHT22;6449;47.666;9.160;2023-02-27T11:59:07;1.20;99.90
12771;DHT22;6449;47.666;9.160;2023-02-27T12:04:18;1.10;99.90
12771;DHT22;6449;47.666;9.160;2023-02-27T12:09:31;1.10;99.90
12771;DHT22;6449;47.666;9.160;2023-02-27T12:14:42;1.10;99.90
12771;DHT22;6449;47.666;9.160;2023-02-27T12:19:47;1.10;99.90
12771;DHT22;6449;47.666;9.160;2023-02-27T12:24:52;1.10;99.90
12771;DHT22;6449;47.666;9.160;2023-02-27T12:29:57;1.00;99.90
12771;DHT22;6449;47.666;9.160;2023-02-27T12:34:59;1.20;99.90
12771;DHT22;6449;47.666;9.160;2023-02-27T12:39:58;1.10;99.90
12771;DHT22;6449;47.666;9.160;2023-02-27T12:45:28;1.10;99.90
12771;DHT22;6449;47.666;9.160;2023-02-27T12:50:45;1.00;99.90
12771;DHT22;6449;47.666;9.160;2023-02-27T12:55:49;0.90;99.90
12771;DHT22;6449;47.666;9.160;2023-02-27T13:00:50;0.70;99.90
12771;DHT22;6449;47.666;9.160;2023-02-27T13:05:58;0.60;99.90
12771;DHT22;6449;47.666;9.160;2023-02-27T13:11:01;0.30;99.90
12771;DHT22;6449;47.666;9.160;2023-02-27T13:16:06;0.30;99.90
12771;DHT22;6449;47.666;9.160;2023-02-27T13:21:11;0.50;99.90
12771;DHT22;6449;47.666;9.160;2023-02-27T13:26:15;0.50;99.90
12771;DHT22;6449;47.666;9.160;2023-02-27T13:31:22;0.50;99.90
12771;DHT22;6449;47.666;9.160;2023-02-27T13:36:26;0.40;99.90
12771;DHT22;6449;47.666;9.160;2023-02-27T13:41:37;0.50;99.90
12771;DHT22;6449;47.666;9.160;2023-02-27T13:46:32;0.60;99.90
12771;DHT22;6449;47.666;9.160;2023-02-27T13:51:45;0.70;99.90
12771;DHT22;6449;47.666;9.160;2023-02-27T13:56:41;0.70;99.90
12771;DHT22;6449;47.666;9.160;2023-02-27T14:01:38;0.70;99.90
12771;DHT22;6449;47.666;9.160;2023-02-27T14:06:31;0.70;99.90
12771;DHT22;6449;47.666;9.160;2023-02-27T14:11:35;0.70;99.90
12771;DHT22;6449;47.666;9.160;2023-02-27T14:17:04;0.80;99.90
12771;DHT22;6449;47.666;9.160;2023-02-27T14:21:59;0.70;99.90
12771;DHT22;6449;47.666;9.160;2023-02-27T14:26:55;0.70;99.90
12771;DHT22;6449;47.666;9.160;2023-02-27T14:31:50;0.70;99.90
12771;DHT22;6449;47.666;9.160;2023-02-27T14:36:48;0.80;99.90
12771;DHT22;6449;47.666;9.160;2023-02-27T14:41:47;0.70;99.90
12771;DHT22;6449;47.666;9.160;2023-02-27T14:46:53;0.60;99.90
12771;DHT22;6449;47.666;9.160;2023-02-27T14:51:47;0.60;99.90
12771;DHT22;6449;47.666;9.160;2023-02-27T14:56:52;0.60;99.90
12771;DHT22;6449;47.666;9.160;2023-02-27T15:01:46;0.60;99.90
12771;DHT22;6449;47.666;9.160;2023-02-27T15:06:43;0.70;99.90
12771;DHT22;6449;47.666;9.160;2023-02-27T15:11:39;0.70;99.90
12771;DHT22;6449;47.666;9.160;2023-02-27T15:16:39;0.70;99.90
12771;DHT22;6449;47.666;9.160;2023-02-27T15:21:39;0.60;99.90
12771;DHT22;6449;47.666;9.160;2023-02-27T15:26:36;0.60;99.90
12771;DHT22;6449;47.666;9.160;2023-02-27T15:31:32;0.50;99.90
12771;DHT22;6449;47.666;9.160;2023-02-27T15:36:28;0.50;99.90
12771;DHT22;6449;47.666;9.160;2023-02-27T15:41:25;0.50;99.90
12771;DHT22;6449;47.666;9.160;2023-02-27T15:46:19;0.40;99.90
12771;DHT22;6449;47.666;9.160;2023-02-27T15:51:12;0.40;99.90
12771;DHT22;6449;47.666;9.160;2023-02-27T15:56:07;0.30;99.90
12771;DHT22;6449;47.666;9.160;2023-02-27T16:01:09;0.30;99.90
12771;DHT22;6449;47.666;9.160;2023-02-27T16:06:10;0.30;99.90
12771;DHT22;6449;47.666;9.160;2023-02-27T16:11:17;0.30;99.90
12771;DHT22;6449;47.666;9.160;2023-02-27T16:16:29;0.30;99.90
12771;DHT22;6449;47.666;9.160;2023-02-27T16:21:28;0.20;99.90
12771;DHT22;6449;47.666;9.160;2023-02-27T16:26:27;0.20;99.90
12771;DHT22;6449;47.666;9.160;2023-02-27T16:31:26;0.20;99.90
12771;DHT22;6449;47.666;9.160;2023-02-27T16:36:23;0.20;99.90
12771;DHT22;6449;47.666;9.160;2023-02-27T16:41:19;0.20;99.90
12771;DHT22;6449;47.666;9.160;2023-02-27T16:46:16;0.20;99.90
12771;DHT22;6449;47.666;9.160;2023-02-27T16:51:16;0.20;99.90
12771;DHT22;6449;47.666;9.160;2023-02-27T16:56:11;0.20;99.90
12771;DHT22;6449;47.666;9.160;2023-02-27T17:01:05;0.20;99.90
12771;DHT22;6449;47.666;9.160;2023-02-27T17:05:59;0.20;99.90
12771;DHT22;6449;47.666;9.160;2023-02-27T17:10:56;0.10;99.90
12771;DHT22;6449;47.666;9.160;2023-02-27T17:15:49;0.10;99.90
12771;DHT22;6449;47.666;9.160;2023-02-27T17:20:43;0.20;99.90
12771;DHT22;6449;47.666;9.160;2023-02-27T17:25:36;0.10;99.90
12771;DHT22;6449;47.666;9.160;2023-02-27T17:30:33;0.10;99.90
12771;DHT22;6449;47.666;9.160;2023-02-27T17:35:27;0.10;99.90
12771;DHT22;6449;47.666;9.160;2023-02-27T17:40:21;0.10;99.90
12771;DHT22;6449;47.666;9.160;2023-02-27T17:45:14;0.20;99.90
12771;DHT22;6449;47.666;9.160;2023-02-27T17:50:10;0.10;99.90
12771;DHT22;6449;47.666;9.160;2023-02-27T17:55:05;0.00;99.90
12771;DHT22;6449;47.666;9.160;2023-02-27T17:59:59;-0.10;99.90
12771;DHT22;6449;47.666;9.160;2023-02-27T18:04:56;-0.10;99.90
12771;DHT22;6449;47.666;9.160;2023-02-27T18:09:51;-0.20;99.90
12771;DHT22;6449;47.666;9.160;2023-02-27T18:14:45;-0.20;99.90
12771;DHT22;6449;47.666;9.160;2023-02-27T18:19:38;-0.10;99.90
12771;DHT22;6449;47.666;9.160;2023-02-27T18:24:33;-0.10;99.90
12771;DHT22;6449;47.666;9.160;2023-02-27T18:29:28;-0.20;99.90
12771;DHT22;6449;47.666;9.160;2023-02-27T18:34:22;-0.20;99.90
12771;DHT22;6449;47.666;9.160;2023-02-27T18:39:16;-0.30;99.90
12771;DHT22;6449;47.666;9.160;2023-02-27T18:44:10;-0.30;99.90
12771;DHT22;6449;47.666;9.160;2023-02-27T18:49:05;-0.30;99.90
12771;DHT22;6449;47.666;9.160;2023-02-27T18:53:58;-0.40;99.90
12771;DHT22;6449;47.666;9.160;2023-02-27T18:58:56;-0.40;99.90
12771;DHT22;6449;47.666;9.160;2023-02-27T19:03:53;-0.40;99.90
12771;DHT22;6449;47.666;9.160;2023-02-27T19:08:55;-0.40;99.90
12771;DHT22;6449;47.666;9.160;2023-02-27T19:13:49;-0.40;99.90
12771;DHT22;6449;47.666;9.160;2023-02-27T19:18:43;-0.40;99.90
12771;DHT22;6449;47.666;9.160;2023-02-27T19:23:36;-0.30;99.90
12771;DHT22;6449;47.666;9.160;2023-02-27T19:28:31;-0.30;99.90
12771;DHT22;6449;47.666;9.160;2023-02-27T19:33:25;-0.40;99.90
12771;DHT22;6449;47.666;9.160;2023-02-27T19:38:19;-0.40;99.90
12771;DHT22;6449;47.666;9.160;2023-02-27T19:43:12;-0.40;99.90
12771;DHT22;6449;47.666;9.160;2023-02-27T19:48:07;-0.40;99.90
12771;DHT22;6449;47.666;9.160;2023-02-27T19:53:02;-0.30;99.90
12771;DHT22;6449;47.666;9.160;2023-02-27T19:57:56;-0.40;99.90
12771;DHT22;6449;47.666;9.160;2023-02-27T20:02:49;-0.40;99.90
12771;DHT22;6449;47.666;9.160;2023-02-27T20:07:44;-0.40;99.90
12771;DHT22;6449;47.666;9.160;2023-02-27T20:12:39;-0.40;99.90
12771;DHT22;6449;47.666;9.160;2023-02-27T20:17:32;-0.40;99.90
12771;DHT22;6449;47.666;9.160;2023-02-27T20:22:26;-0.40;99.90
12771;DHT22;6449;47.666;9.160;2023-02-27T20:27:20;-0.40;99.90
12771;DHT22;6449;47.666;9.160;2023-02-27T20:32:14;-0.40;99.90
12771;DHT22;6449;47.666;9.160;2023-02-27T20:37:12;-0.30;99.90
12771;DHT22;6449;47.666;9.160;2023-02-27T20:42:05;-0.40;99.90
12771;DHT22;6449;47.666;9.160;2023-02-27T20:47:00;-0.40;99.90
12771;DHT22;6449;47.666;9.160;2023-02-27T20:51:54;-0.40;99.90
12771;DHT22;6449;47.666;9.160;2023-02-27T20:56:49;-0.40;99.90
12771;DHT22;6449;47.666;9.160;2023-02-27T21:01:45;-0.30;99.90
12771;DHT22;6449;47.666;9.160;2023-02-27T21:06:43;-0.40;99.90
12771;DHT22;6449;47.666;9.160;2023-02-27T21:11:37;-0.50;99.90
12771;DHT22;6449;47.666;9.160;2023-02-27T21:16:34;-0.40;99.90
12771;DHT22;6449;47.666;9.160;2023-02-27T21:21:29;-0.50;99.90
12771;DHT22;6449;47.666;9.160;2023-02-27T21:26:26;-0.50;99.90
12771;DHT22;6449;47.666;9.160;2023-02-27T21:31:28;-0.50;99.90
12771;DHT22;6449;47.666;9.160;2023-02-27T21:36:36;-0.70;99.90
12771;DHT22;6449;47.666;9.160;2023-02-27T21:41:41;-0.60;99.90
12771;DHT22;6449;47.666;9.160;2023-02-27T21:46:39;-0.60;99.90
12771;DHT22;6449;47.666;9.160;2023-02-27T21:51:33;-0.60;99.90
12771;DHT22;6449;47.666;9.160;2023-02-27T21:56:32;-0.50;99.90
12771;DHT22;6449;47.666;9.160;2023-02-27T22:01:27;-0.50;99.90
12771;DHT22;6449;47.666;9.160;2023-02-27T22:06:24;-0.50;99.90
12771;DHT22;6449;47.666;9.160;2023-02-27T22:11:18;-0.50;99.90
12771;DHT22;6449;47.666;9.160;2023-02-27T22:16:12;-0.50;99.90
12771;DHT22;6449;47.666;9.160;2023-02-27T22:21:08;-0.40;99.90
12771;DHT22;6449;47.666;9.160;2023-02-27T22:26:06;-0.40;99.90
12771;DHT22;6449;47.666;9.160;2023-02-27T22:31:07;-0.50;99.90
12771;DHT22;6449;47.666;9.160;2023-02-27T22:36:05;-0.50;99.90
12771;DHT22;6449;47.666;9.160;2023-02-27T22:41:05;-0.50;99.90
12771;DHT22;6449;47.666;9.160;2023-02-27T22:46:00;-0.40;99.90
12771;DHT22;6449;47.666;9.160;2023-02-27T22:50:59;-0.40;99.90
12771;DHT22;6449;47.666;9.160;2023-02-27T22:55:55;-0.50;99.90
12771;DHT22;6449;47.666;9.160;2023-02-27T23:00:49;-0.60;99.90
12771;DHT22;6449;47.666;9.160;2023-02-27T23:05:46;-0.50;99.90
12771;DHT22;6449;47.666;9.160;2023-02-27T23:10:41;-0.50;99.90
12771;DHT22;6449;47.666;9.160;2023-02-27T23:15:36;-0.50;99.90
12771;DHT22;6449;47.666;9.160;2023-02-27T23:20:30;-0.40;99.90
12771;DHT22;6449;47.666;9.160;2023-02-27T23:25:23;-0.40;99.90
12771;DHT22;6449;47.666;9.160;2023-02-27T23:30:17;-0.40;99.90
12771;DHT22;6449;47.666;9.160;2023-02-27T23:35:12;-0.40;99.90
12771;DHT22;6449;47.666;9.160;2023-02-27T23:40:09;-0.40;99.90
12771;DHT22;6449;47.666;9.160;2023-02-27T23:45:04;-0.50;99.90
12771;DHT22;6449;47.666;9.160;2023-02-27T23:50:21;-0.40;99.90
12771;DHT22;6449;47.666;9.160;2023-02-27T23:55:17;-0.50;99.90
